Gainesville, Florida
Current Conditions -  °F | °C
As of 8:50 AM on Thursday 30 Oct 2014 (Local Time) from KGNV Reporting Station
Moderate Fog Moderate Fog  
Wind Chill: 64°   Ceiling: 200
Heat Index: 64°   Visibility: 0.25mi
Dew Point: 64°   Wind: 0mph
Humidity: 100%   Direction: NA
Pressure: 30"   Gusts: NA
Location:  29.65°N, 82.32°W
Report Text: KGNV 301250Z 00000KT 1/4SM FG VV002 18/18 A3000 RMK AO2 SLP157 T01780178
Loading
Personal Weather Stations






























Interactive Weather Map
Tropical Storm Tracking
New forecast layout! Learn more

10-Day Weather Forecast

Advertisements
Track Severe Weather on mobile